Time;durP1;ratioP1;P1;durP2;ratioP2;P2;SDS_P1;SDS_P2;PMS_P1;PMS_P2;Temp;Humidity;BMP_temperature;BMP_pressure;BME280_temperature;BME280_humidity;BME280_pressure;Samples;Min_cycle;Max_cycle;Signal;HPM_P1;HPM_P2
2022/01/31 00:01:23;;;;;;;;;;;;;;;;;;5062583;28;19922;-68
2022/01/31 00:03:48;;;;;;;;;;;;;;;;;;5058304;28;19912;-68
2022/01/31 00:06:13;;;;;;;;;;;;;;;;;;5058114;28;19947;-68
2022/01/31 00:08:40;;;;;;;;;;;;;;;;;;5058725;28;19958;-68
2022/01/31 00:11:05;;;;;;;;;;;;;;;;;;5059064;28;19974;-68
2022/01/31 00:13:37;;;;;;;;;;;;;;;;;;5058904;28;19912;-69
2022/01/31 00:16:03;;;;;;;;;;;;;;;;;;5060293;28;19973;-68
2022/01/31 00:18:28;;;;;;;;;;;;;;;;;;5058044;28;19916;-68
2022/01/31 00:20:54;;;;;;;;;;;;;;;;;;5061774;28;19912;-69
2022/01/31 00:23:19;;;;;;;;;;;;;;;;;;5058790;28;19920;-68
2022/01/31 00:25:44;;;;;;;;;;;;;;;;;;5058066;28;20392;-69
2022/01/31 00:28:09;;;;;;;;;;;;;;;;;;5058215;28;19920;-68
2022/01/31 00:30:34;;;;;;;;;;;;;;;;;;5062724;28;20308;-68
2022/01/31 00:32:59;;;;;;;;;;;;;;;;;;5062035;28;19939;-68
2022/01/31 00:35:26;;;;;;;;;;;;;;;;;;5057907;28;19931;-69
2022/01/31 00:37:51;;;;;;;;;;;;;;;;;;5060560;28;20006;-69
2022/01/31 00:40:16;;;;;;;;;;;;;;;;;;5057646;28;20046;-69
2022/01/31 00:42:41;;;;;;;;;;;;;;;;;;5057848;28;19952;-69
2022/01/31 00:45:13;;;;;;;;;;;;;;;;;;5059282;28;19916;-68
2022/01/31 00:47:41;;;;;;;;;;;;;;;;;;5059900;28;19919;-68
2022/01/31 00:50:11;;;;;;;;;;;;;;;;;;5060539;28;19913;-69
2022/01/31 00:52:36;;;;;;;;;;;;;;;;;;5062163;28;19919;-69
2022/01/31 00:55:01;;;;;;;;;;;;;;;;;;5059495;28;19912;-69
2022/01/31 00:57:26;;;;;;;;;;;;;;;;;;5059788;28;19928;-69
2022/01/31 00:59:51;;;;;;;;;;;;;;;;;;5057989;28;20014;-69
2022/01/31 01:02:16;;;;;;;;;;;;;;;;;;5058289;28;19917;-69
2022/01/31 01:04:41;;;;;;;;;;;;;;;;;;5057504;28;19935;-69
2022/01/31 01:07:07;;;;;;;;;;;;;;;;;;5058762;28;20380;-69
2022/01/31 01:09:32;;;;;;;;;;;;;;;;;;5060500;28;19958;-69
2022/01/31 01:11:57;;;;;;;;;;;;;;;;;;5062308;28;19920;-69
2022/01/31 01:14:27;;;;;;;;;;;;;;;;;;5061122;28;20225;-68
2022/01/31 01:16:52;;;;;;;;;;;;;;;;;;5065563;28;19955;-68
2022/01/31 01:19:17;;;;;;;;;;;;;;;;;;5060467;28;20332;-69
2022/01/31 01:21:43;;;;;;;;;;;;;;;;;;5063373;28;19912;-68
2022/01/31 01:24:08;;;;;;;;;;;;;;;;;;5061746;28;20003;-68
2022/01/31 01:26:33;;;;;;;;;;;;;;;;;;5070745;28;19956;-69
2022/01/31 01:28:58;;;;;;;;;;;;;;;;;;5064044;28;19917;-68
2022/01/31 01:31:23;;;;;;;;;;;;;;;;;;5070505;28;19912;-69
2022/01/31 01:33:48;;;;;;;;;;;;;;;;;;5065232;28;19917;-69
2022/01/31 01:36:14;;;;;;;;;;;;;;;;;;5062619;28;19912;-69
2022/01/31 01:38:39;;;;;;;;;;;;;;;;;;5066981;28;19920;-69
2022/01/31 01:41:04;;;;;;;;;;;;;;;;;;5062838;28;19951;-68
2022/01/31 01:43:30;;;;;;;;;;;;;;;;;;5064161;28;20357;-69
2022/01/31 01:45:55;;;;;;;;;;;;;;;;;;5063401;28;19924;-68
2022/01/31 01:48:20;;;;;;;;;;;;;;;;;;5065610;28;19916;-69
2022/01/31 01:50:45;;;;;;;;;;;;;;;;;;5062922;28;19912;-69
2022/01/31 01:53:12;;;;;;;;;;;;;;;;;;5061642;28;19920;-69
2022/01/31 01:55:37;;;;;;;;;;;;;;;;;;5064829;28;19913;-69
2022/01/31 01:58:04;;;;;;;;;;;;;;;;;;5060686;28;19923;-68
2022/01/31 02:00:43;;;;;;;;;;;;;;;;;;5065513;22;20300;-69
2022/01/31 02:03:08;;;;;;;;;;;;;;;;;;5041008;28;19917;-68
2022/01/31 02:05:33;;;;;;;;;;;;;;;;;;5041796;28;19928;-68
2022/01/31 02:07:58;;;;;;;;;;;;;;;;;;5048549;28;20169;-69
2022/01/31 02:10:25;;;;;;;;;;;;;;;;;;5038164;28;19909;-68
2022/01/31 02:12:50;;;;;;;;;;;;;;;;;;5047655;28;20315;-68
2022/01/31 02:15:17;;;;;;;;;;;;;;;;;;5037338;28;20387;-69
2022/01/31 02:17:42;;;;;;;;;;;;;;;;;;5040108;28;20000;-68
2022/01/31 02:20:07;;;;;;;;;;;;;;;;;;5041684;28;20471;-68
2022/01/31 02:22:32;;;;;;;;;;;;;;;;;;5039942;28;19943;-69
2022/01/31 02:24:57;;;;;;;;;;;;;;;;;;5037801;28;19920;-69
2022/01/31 02:27:22;;;;;;;;;;;;;;;;;;5039785;28;20469;-69
2022/01/31 02:29:47;;;;;;;;;;;;;;;;;;5019654;28;20016;-68
2022/01/31 02:32:13;;;;;;;;;;;;;;;;;;5044754;28;19967;-68
2022/01/31 02:34:38;;;;;;;;;;;;;;;;;;5044397;28;19909;-68
2022/01/31 02:37:03;;;;;;;;;;;;;;;;;;5047576;28;19979;-68
2022/01/31 02:39:28;;;;;;;;;;;;;;;;;;5038528;28;19921;-69
2022/01/31 02:41:53;;;;;;;;;;;;;;;;;;5047377;28;20274;-69
2022/01/31 02:44:18;;;;;;;;;;;;;;;;;;5042136;28;20396;-69
2022/01/31 02:46:49;;;;;;;;;;;;;;;;;;5042243;28;20193;-69
2022/01/31 02:49:14;;;;;;;;;;;;;;;;;;5040885;28;19970;-69
2022/01/31 02:51:45;;;;;;;;;;;;;;;;;;5039156;28;20166;-69
2022/01/31 02:54:10;;;;;;;;;;;;;;;;;;5037851;28;20015;-69
2022/01/31 02:56:37;;;;;;;;;;;;;;;;;;5040675;28;20223;-69
2022/01/31 02:59:02;;;;;;;;;;;;;;;;;;5038380;28;19928;-69
2022/01/31 03:01:27;;;;;;;;;;;;;;;;;;5039539;28;19925;-69
2022/01/31 03:03:52;;;;;;;;;;;;;;;;;;5040012;28;19921;-70
2022/01/31 03:06:17;;;;;;;;;;;;;;;;;;5039441;28;19967;-69
2022/01/31 03:08:42;;;;;;;;;;;;;;;;;;5041388;28;20178;-69
2022/01/31 03:11:07;;;;;;;;;;;;;;;;;;5043519;28;20391;-69
2022/01/31 03:13:32;;;;;;;;;;;;;;;;;;5043431;28;20441;-69
2022/01/31 03:15:58;;;;;;;;;;;;;;;;;;5042952;28;20396;-69
2022/01/31 03:18:23;;;;;;;;;;;;;;;;;;5045574;28;20205;-70
2022/01/31 03:20:49;;;;;;;;;;;;;;;;;;5043845;28;19919;-70
2022/01/31 03:23:14;;;;;;;;;;;;;;;;;;5043983;28;19917;-69
2022/01/31 03:25:39;;;;;;;;;;;;;;;;;;5042865;28;19921;-71
2022/01/31 03:28:04;;;;;;;;;;;;;;;;;;5043940;28;20146;-70
2022/01/31 03:30:29;;;;;;;;;;;;;;;;;;5044890;28;19913;-70
2022/01/31 03:32:54;;;;;;;;;;;;;;;;;;5045641;28;20115;-70
2022/01/31 03:35:19;;;;;;;;;;;;;;;;;;5044566;28;19912;-70
2022/01/31 03:37:45;;;;;;;;;;;;;;;;;;5042673;28;20124;-70
2022/01/31 03:40:10;;;;;;;;;;;;;;;;;;5044204;28;20019;-71
2022/01/31 03:42:35;;;;;;;;;;;;;;;;;;5042052;28;20410;-71
2022/01/31 03:45:00;;;;;;;;;;;;;;;;;;5043958;28;20097;-71
2022/01/31 03:47:25;;;;;;;;;;;;;;;;;;5043765;28;20054;-71
2022/01/31 03:49:50;;;;;;;;;;;;;;;;;;5043886;28;19928;-71
2022/01/31 03:52:15;;;;;;;;;;;;;;;;;;5046319;28;19920;-71
2022/01/31 03:54:41;;;;;;;;;;;;;;;;;;5049489;28;19916;-71
2022/01/31 03:57:06;;;;;;;;;;;;;;;;;;5045792;28;19913;-70
2022/01/31 03:59:31;;;;;;;;;;;;;;;;;;5051560;28;19913;-70
2022/01/31 04:01:56;;;;;;;;;;;;;;;;;;5043139;28;20051;-70
2022/01/31 04:04:21;;;;;;;;;;;;;;;;;;5044857;28;20135;-70
2022/01/31 04:06:47;;;;;;;;;;;;;;;;;;5044338;28;20055;-71
2022/01/31 04:09:12;;;;;;;;;;;;;;;;;;5043450;28;20114;-71
2022/01/31 04:11:37;;;;;;;;;;;;;;;;;;5043924;28;19958;-71
2022/01/31 04:14:02;;;;;;;;;;;;;;;;;;5042411;28;20037;-71
2022/01/31 04:16:27;;;;;;;;;;;;;;;;;;5043903;28;19909;-70
2022/01/31 04:18:52;;;;;;;;;;;;;;;;;;5043098;28;20178;-70
2022/01/31 04:21:17;;;;;;;;;;;;;;;;;;5049937;28;20351;-70
2022/01/31 04:23:43;;;;;;;;;;;;;;;;;;5042197;28;19924;-70
2022/01/31 04:26:12;;;;;;;;;;;;;;;;;;5042290;28;19974;-70
2022/01/31 04:28:46;;;;;;;;;;;;;;;;;;5052495;28;19986;-70
2022/01/31 04:33:36;;;;;;;;;;;;;;;;;;5043866;28;19921;-70
2022/01/31 04:36:01;;;;;;;;;;;;;;;;;;5045101;28;19917;-71
2022/01/31 04:38:26;;;;;;;;;;;;;;;;;;5043039;28;19955;-70
2022/01/31 04:40:51;;;;;;;;;;;;;;;;;;5042619;28;19913;-70
2022/01/31 04:43:16;;;;;;;;;;;;;;;;;;5042663;28;19921;-70
2022/01/31 04:45:47;;;;;;;;;;;;;;;;;;5045658;28;19916;-70
2022/01/31 04:48:12;;;;;;;;;;;;;;;;;;5044082;28;19950;-70
2022/01/31 04:50:37;;;;;;;;;;;;;;;;;;5044890;28;19912;-70
2022/01/31 04:53:02;;;;;;;;;;;;;;;;;;5044614;28;19928;-70
2022/01/31 04:55:27;;;;;;;;;;;;;;;;;;5042298;28;19923;-70
2022/01/31 04:57:52;;;;;;;;;;;;;;;;;;5052182;28;19923;-70
2022/01/31 05:00:18;;;;;;;;;;;;;;;;;;5041991;28;20002;-70
2022/01/31 05:02:43;;;;;;;;;;;;;;;;;;5047180;28;19917;-70
2022/01/31 05:05:08;;;;;;;;;;;;;;;;;;5038404;28;19971;-70
2022/01/31 05:07:33;;;;;;;;;;;;;;;;;;5038787;28;19917;-70
2022/01/31 05:10:01;;;;;;;;;;;;;;;;;;5040336;28;20390;-70
2022/01/31 05:12:27;;;;;;;;;;;;;;;;;;5037719;28;19960;-70
2022/01/31 05:14:52;;;;;;;;;;;;;;;;;;5038544;28;20014;-70
2022/01/31 05:17:17;;;;;;;;;;;;;;;;;;5037597;28;20414;-70
2022/01/31 05:19:42;;;;;;;;;;;;;;;;;;5044893;28;19983;-70
2022/01/31 05:22:07;;;;;;;;;;;;;;;;;;5035232;28;19927;-70
2022/01/31 05:24:33;;;;;;;;;;;;;;;;;;5034407;28;19982;-70
2022/01/31 05:26:58;;;;;;;;;;;;;;;;;;5035155;28;19927;-70
2022/01/31 05:29:23;;;;;;;;;;;;;;;;;;5041252;28;20282;-72
2022/01/31 05:31:53;;;;;;;;;;;;;;;;;;5045325;28;19928;-71
2022/01/31 05:34:18;;;;;;;;;;;;;;;;;;5041759;28;19926;-71
2022/01/31 05:36:43;;;;;;;;;;;;;;;;;;5041519;28;19913;-70
2022/01/31 05:39:08;;;;;;;;;;;;;;;;;;5041173;28;20325;-70
2022/01/31 05:41:33;;;;;;;;;;;;;;;;;;5038278;28;19920;-70
2022/01/31 05:43:58;;;;;;;;;;;;;;;;;;5041056;28;19913;-71
2022/01/31 05:46:23;;;;;;;;;;;;;;;;;;5041112;28;20399;-70
2022/01/31 05:48:49;;;;;;;;;;;;;;;;;;5031218;28;19952;-70
2022/01/31 05:51:14;;;;;;;;;;;;;;;;;;5039652;28;20109;-71
2022/01/31 05:53:39;;;;;;;;;;;;;;;;;;5040118;28;19919;-71
2022/01/31 05:56:04;;;;;;;;;;;;;;;;;;5040062;28;20023;-70
2022/01/31 05:58:29;;;;;;;;;;;;;;;;;;5035586;28;19928;-70
2022/01/31 06:00:54;;;;;;;;;;;;;;;;;;5038778;28;20159;-71
2022/01/31 06:03:19;;;;;;;;;;;;;;;;;;5040168;28;19966;-70
2022/01/31 06:05:45;;;;;;;;;;;;;;;;;;5040198;28;20012;-71
2022/01/31 06:08:10;;;;;;;;;;;;;;;;;;5044295;28;19940;-70
2022/01/31 06:10:41;;;;;;;;;;;;;;;;;;5035890;28;20157;-70
2022/01/31 06:13:06;;;;;;;;;;;;;;;;;;5035449;28;19978;-70
2022/01/31 06:15:31;;;;;;;;;;;;;;;;;;5036901;28;19913;-70
2022/01/31 06:17:57;;;;;;;;;;;;;;;;;;5039339;28;19924;-70
2022/01/31 06:20:22;;;;;;;;;;;;;;;;;;5034213;28;19956;-70
2022/01/31 06:22:47;;;;;;;;;;;;;;;;;;5036218;28;20047;-70
2022/01/31 06:25:12;;;;;;;;;;;;;;;;;;5037755;28;19917;-70
2022/01/31 06:27:37;;;;;;;;;;;;;;;;;;5049823;28;19921;-70
2022/01/31 06:30:02;;;;;;;;;;;;;;;;;;5041132;28;19909;-70
2022/01/31 06:32:27;;;;;;;;;;;;;;;;;;5040469;28;20284;-70
2022/01/31 06:34:53;;;;;;;;;;;;;;;;;;5038753;28;20278;-70
2022/01/31 06:37:18;;;;;;;;;;;;;;;;;;5040304;28;19917;-70
2022/01/31 06:39:43;;;;;;;;;;;;;;;;;;5052500;28;20395;-70
2022/01/31 06:42:09;;;;;;;;;;;;;;;;;;5047630;28;19944;-69
2022/01/31 06:44:36;;;;;;;;;;;;;;;;;;5039234;28;19916;-69
2022/01/31 06:47:01;;;;;;;;;;;;;;;;;;5051581;28;20161;-70
2022/01/31 06:49:26;;;;;;;;;;;;;;;;;;5041350;28;20117;-70
2022/01/31 06:51:51;;;;;;;;;;;;;;;;;;5045432;28;20345;-70
2022/01/31 06:54:17;;;;;;;;;;;;;;;;;;5048096;28;19939;-70
2022/01/31 06:56:44;;;;;;;;;;;;;;;;;;5038321;28;19912;-69
2022/01/31 06:59:09;;;;;;;;;;;;;;;;;;5051931;28;19982;-69
2022/01/31 07:01:34;;;;;;;;;;;;;;;;;;5050408;28;20170;-70
2022/01/31 07:03:59;;;;;;;;;;;;;;;;;;5043598;28;19913;-70
2022/01/31 07:06:25;;;;;;;;;;;;;;;;;;5046552;28;19939;-71
2022/01/31 07:08:50;;;;;;;;;;;;;;;;;;5040154;28;20559;-71
2022/01/31 07:11:20;;;;;;;;;;;;;;;;;;5038174;28;19913;-71
2022/01/31 07:13:48;;;;;;;;;;;;;;;;;;5038625;28;20006;-70
2022/01/31 07:16:13;;;;;;;;;;;;;;;;;;5045021;28;20572;-70
2022/01/31 07:18:39;;;;;;;;;;;;;;;;;;5059236;28;19956;-70
2022/01/31 07:21:04;;;;;;;;;;;;;;;;;;5051114;28;19916;-70
2022/01/31 07:23:50;;;;;;;;;;;;;;;;;;5044430;28;20431;-70
2022/01/31 07:26:14;;;;;;;;;;;;;;;;;;5041810;28;20189;-70
2022/01/31 07:28:40;;;;;;;;;;;;;;;;;;5042994;28;20145;-70
2022/01/31 07:31:05;;;;;;;;;;;;;;;;;;5040267;28;20070;-70
2022/01/31 07:33:30;;;;;;;;;;;;;;;;;;5045995;28;19917;-70
2022/01/31 07:35:55;;;;;;;;;;;;;;;;;;5041477;28;19924;-70
2022/01/31 07:38:21;;;;;;;;;;;;;;;;;;5041866;28;19921;-70
2022/01/31 07:40:47;;;;;;;;;;;;;;;;;;5040478;28;19969;-69
2022/01/31 07:43:12;;;;;;;;;;;;;;;;;;5057536;28;19912;-69
2022/01/31 07:45:37;;;;;;;;;;;;;;;;;;5046214;28;19944;-70
2022/01/31 07:48:02;;;;;;;;;;;;;;;;;;5057572;28;19916;-70
2022/01/31 07:50:30;;;;;;;;;;;;;;;;;;5047085;28;19912;-69
2022/01/31 07:52:56;;;;;;;;;;;;;;;;;;5041244;28;19939;-70
2022/01/31 07:55:21;;;;;;;;;;;;;;;;;;5036268;28;19912;-70
2022/01/31 07:57:47;;;;;;;;;;;;;;;;;;5042357;28;20197;-69
2022/01/31 08:00:12;;;;;;;;;;;;;;;;;;5041748;28;20368;-70
2022/01/31 08:02:37;;;;;;;;;;;;;;;;;;5041211;28;20054;-70
2022/01/31 08:05:02;;;;;;;;;;;;;;;;;;5038842;28;20512;-70
2022/01/31 08:07:27;;;;;;;;;;;;;;;;;;5042268;28;19921;-70
2022/01/31 08:09:53;;;;;;;;;;;;;;;;;;5040445;28;19913;-70
2022/01/31 08:12:18;;;;;;;;;;;;;;;;;;5040732;28;19924;-70
2022/01/31 08:14:44;;;;;;;;;;;;;;;;;;5040569;28;19920;-70
2022/01/31 08:17:09;;;;;;;;;;;;;;;;;;5055711;28;19913;-70
2022/01/31 08:19:34;;;;;;;;;;;;;;;;;;5054805;28;19947;-70
2022/01/31 08:21:59;;;;;;;;;;;;;;;;;;5056855;28;19912;-70
2022/01/31 08:24:25;;;;;;;;;;;;;;;;;;5037633;28;19917;-70
2022/01/31 08:26:50;;;;;;;;;;;;;;;;;;5039947;28;20181;-70
2022/01/31 08:29:36;;;;;;;;;;;;;;;;;;5040373;28;20153;-70
2022/01/31 08:32:06;;;;;;;;;;;;;;;;;;5040198;28;19908;-70
2022/01/31 08:37:15;;;;;;;;;;;;;;;;;;5039822;28;20427;-69
2022/01/31 08:39:40;;;;;;;;;;;;;;;;;;5038959;28;19924;-69
2022/01/31 08:42:05;;;;;;;;;;;;;;;;;;5040205;28;20003;-69
2022/01/31 08:44:30;;;;;;;;;;;;;;;;;;5038754;28;19927;-70
2022/01/31 08:46:55;;;;;;;;;;;;;;;;;;5047718;28;19916;-70
2022/01/31 08:49:20;;;;;;;;;;;;;;;;;;5053215;28;20084;-70
2022/01/31 08:51:45;;;;;;;;;;;;;;;;;;5039654;28;19917;-70
2022/01/31 08:54:11;;;;;;;;;;;;;;;;;;5042593;28;19913;-70
2022/01/31 08:56:40;;;;;;;;;;;;;;;;;;5046436;28;19932;-70
2022/01/31 08:59:07;;;;;;;;;;;;;;;;;;5056114;28;19973;-70
2022/01/31 09:01:32;;;;;;;;;;;;;;;;;;5042201;28;20389;-70
2022/01/31 09:04:05;;;;;;;;;;;;;;;;;;5039889;28;19913;-71
2022/01/31 09:06:30;;;;;;;;;;;;;;;;;;5042157;28;19920;-70
2022/01/31 09:08:57;;;;;;;;;;;;;;;;;;5042215;28;20003;-70
2022/01/31 09:11:22;;;;;;;;;;;;;;;;;;5035830;28;20325;-70
2022/01/31 09:13:47;;;;;;;;;;;;;;;;;;5039482;28;20436;-70
2022/01/31 09:16:12;;;;;;;;;;;;;;;;;;5037659;28;19912;-70
2022/01/31 09:18:37;;;;;;;;;;;;;;;;;;5039749;28;20521;-70
2022/01/31 09:21:03;;;;;;;;;;;;;;;;;;5042034;28;19912;-70
2022/01/31 09:23:28;;;;;;;;;;;;;;;;;;5053927;28;20236;-70
2022/01/31 09:25:53;;;;;;;;;;;;;;;;;;5041618;28;19925;-70
2022/01/31 09:28:18;;;;;;;;;;;;;;;;;;5036963;28;20147;-71
2022/01/31 09:30:43;;;;;;;;;;;;;;;;;;5038788;28;20097;-70
2022/01/31 09:33:08;;;;;;;;;;;;;;;;;;5042000;28;20252;-70
2022/01/31 09:35:33;;;;;;;;;;;;;;;;;;5041127;28;20388;-70
2022/01/31 09:37:59;;;;;;;;;;;;;;;;;;5050275;28;19912;-70
2022/01/31 09:40:24;;;;;;;;;;;;;;;;;;5038264;28;19954;-70
2022/01/31 09:43:01;;;;;;;;;;;;;;;;;;5040120;28;20007;-71
2022/01/31 09:45:43;;;;;;;;;;;;;;;;;;5042619;28;20149;-70
2022/01/31 09:50:34;;;;;;;;;;;;;;;;;;5042723;28;19916;-70
2022/01/31 09:52:59;;;;;;;;;;;;;;;;;;5037389;28;20069;-70
2022/01/31 09:55:26;;;;;;;;;;;;;;;;;;5039020;28;19920;-70
2022/01/31 09:57:51;;;;;;;;;;;;;;;;;;5046398;28;20254;-70
2022/01/31 10:00:16;;;;;;;;;;;;;;;;;;5038641;28;19969;-70
2022/01/31 10:02:41;;;;;;;;;;;;;;;;;;5041501;28;19924;-69
2022/01/31 10:05:06;;;;;;;;;;;;;;;;;;5042985;28;20158;-69
2022/01/31 10:07:31;;;;;;;;;;;;;;;;;;5038251;28;20289;-69
2022/01/31 10:10:01;;;;;;;;;;;;;;;;;;5053511;28;19912;-70
2022/01/31 10:16:26;;;;;;;;;;;;;;;;;;5052574;28;20042;-69
2022/01/31 10:17:58;;;;;;;;;;;;;;;;;;5036684;28;20095;-70
2022/01/31 10:20:25;;;;;;;;;;;;;;;;;;5038025;28;20277;-70
2022/01/31 10:22:50;;;;;;;;;;;;;;;;;;5047240;28;20068;-70
2022/01/31 10:25:16;;;;;;;;;;;;;;;;;;5036549;28;19944;-70
2022/01/31 10:27:41;;;;;;;;;;;;;;;;;;5039056;28;19913;-70
2022/01/31 10:30:06;;;;;;;;;;;;;;;;;;5039468;28;19921;-70
2022/01/31 10:32:34;;;;;;;;;;;;;;;;;;5048682;28;19909;-70
2022/01/31 10:35:00;;;;;;;;;;;;;;;;;;5036923;28;19913;-70
2022/01/31 10:37:25;;;;;;;;;;;;;;;;;;5044658;28;19916;-70
2022/01/31 10:51:20;;;;;;;;;;;;;;;;;;4975893;28;20132;-70
2022/01/31 10:53:38;;;;;;;;;;;;;;;;;;4975548;28;20307;-70
2022/01/31 10:56:03;;;;;;;;;;;;;;;;;;4972148;28;20310;-70
2022/01/31 10:58:30;;;;;;;;;;;;;;;;;;4976210;28;20216;-70
2022/01/31 11:00:55;;;;;;;;;;;;;;;;;;4973229;28;19926;-70
2022/01/31 11:03:20;;;;;;;;;;;;;;;;;;4976571;28;19918;-70
2022/01/31 11:05:46;;;;;;;;;;;;;;;;;;4978548;28;19929;-70
2022/01/31 11:08:11;;;;;;;;;;;;;;;;;;4977292;28;19921;-70
2022/01/31 11:10:36;;;;;;;;;;;;;;;;;;4984081;28;19921;-70
2022/01/31 11:13:01;;;;;;;;;;;;;;;;;;4978689;28;19932;-69
2022/01/31 11:15:26;;;;;;;;;;;;;;;;;;4978087;28;20238;-70
2022/01/31 11:17:51;;;;;;;;;;;;;;;;;;4984104;28;19913;-70
2022/01/31 11:20:17;;;;;;;;;;;;;;;;;;4975044;28;20274;-70
2022/01/31 11:22:42;;;;;;;;;;;;;;;;;;4997706;28;19953;-70
2022/01/31 11:25:08;;;;;;;;;;;;;;;;;;4995983;28;20178;-70
2022/01/31 11:27:34;;;;;;;;;;;;;;;;;;5001376;28;20314;-70
2022/01/31 11:30:00;;;;;;;;;;;;;;;;;;5002104;28;20000;-70
2022/01/31 11:32:25;;;;;;;;;;;;;;;;;;5000936;28;20020;-70
2022/01/31 11:34:50;;;;;;;;;;;;;;;;;;5000953;28;20004;-70
2022/01/31 11:37:15;;;;;;;;;;;;;;;;;;5001075;28;20004;-70
2022/01/31 11:39:40;;;;;;;;;;;;;;;;;;4999979;28;19917;-69
2022/01/31 11:42:05;;;;;;;;;;;;;;;;;;5002882;28;21388;-69
2022/01/31 11:44:31;;;;;;;;;;;;;;;;;;5000493;28;19921;-69
2022/01/31 11:46:56;;;;;;;;;;;;;;;;;;5008250;28;20396;-70
2022/01/31 11:49:21;;;;;;;;;;;;;;;;;;5015792;28;19924;-70
2022/01/31 11:51:46;;;;;;;;;;;;;;;;;;5001771;28;20163;-69
2022/01/31 11:54:14;;;;;;;;;;;;;;;;;;5017288;28;19928;-70
2022/01/31 11:56:39;;;;;;;;;;;;;;;;;;5002901;28;19961;-69
2022/01/31 11:59:05;;;;;;;;;;;;;;;;;;5005573;28;20465;-69
2022/01/31 12:01:31;;;;;;;;;;;;;;;;;;5026126;28;19921;-69
2022/01/31 12:03:56;;;;;;;;;;;;;;;;;;5045315;28;19930;-69
2022/01/31 12:06:21;;;;;;;;;;;;;;;;;;5041405;28;19921;-69
2022/01/31 12:08:48;;;;;;;;;;;;;;;;;;5046327;28;20276;-69
2022/01/31 12:11:17;;;;;;;;;;;;;;;;;;5040874;28;19957;-69
2022/01/31 12:13:46;;;;;;;;;;;;;;;;;;5045992;28;19909;-69
2022/01/31 12:18:48;;;;;;;;;;;;;;;;;;5060295;28;20160;-69
2022/01/31 12:23:57;;;;;;;;;;;;;;;;;;5036489;28;19966;-69
2022/01/31 12:26:22;;;;;;;;;;;;;;;;;;5039409;28;20157;-69
2022/01/31 12:28:48;;;;;;;;;;;;;;;;;;5044745;28;20191;-69
2022/01/31 12:31:13;;;;;;;;;;;;;;;;;;5040955;28;19917;-69
2022/01/31 12:33:38;;;;;;;;;;;;;;;;;;5061949;28;19912;-68
2022/01/31 12:36:03;;;;;;;;;;;;;;;;;;5049404;28;20038;-68
2022/01/31 12:38:28;;;;;;;;;;;;;;;;;;5049758;28;19921;-68
2022/01/31 12:40:57;;;;;;;;;;;;;;;;;;5040513;28;20065;-69
2022/01/31 12:43:56;;;;;;;;;;;;;;;;;;5038918;28;20038;-69
2022/01/31 12:46:14;;;;;;;;;;;;;;;;;;5037855;28;20008;-69
2022/01/31 12:48:39;;;;;;;;;;;;;;;;;;5060681;28;19995;-69
2022/01/31 12:51:05;;;;;;;;;;;;;;;;;;5044838;28;20405;-69
2022/01/31 12:55:55;;;;;;;;;;;;;;;;;;5042040;28;20419;-68
2022/01/31 12:58:20;;;;;;;;;;;;;;;;;;5047894;28;20407;-68
2022/01/31 13:00:45;;;;;;;;;;;;;;;;;;5041589;28;20327;-68
2022/01/31 13:03:10;;;;;;;;;;;;;;;;;;5053228;28;20273;-69
2022/01/31 13:05:35;;;;;;;;;;;;;;;;;;5041140;28;20326;-69
2022/01/31 13:08:00;;;;;;;;;;;;;;;;;;5042498;28;20452;-69
2022/01/31 13:10:26;;;;;;;;;;;;;;;;;;5043797;28;20500;-69
2022/01/31 13:12:52;;;;;;;;;;;;;;;;;;5060278;28;19909;-68
2022/01/31 13:15:17;;;;;;;;;;;;;;;;;;5049741;28;19921;-69
2022/01/31 13:17:45;;;;;;;;;;;;;;;;;;5052822;28;19920;-68
2022/01/31 13:20:10;;;;;;;;;;;;;;;;;;5043397;28;20207;-68
2022/01/31 13:22:38;;;;;;;;;;;;;;;;;;5038303;28;19920;-69
2022/01/31 13:25:04;;;;;;;;;;;;;;;;;;5044727;28;20017;-69
2022/01/31 13:27:29;;;;;;;;;;;;;;;;;;5037964;28;19956;-69
2022/01/31 13:29:55;;;;;;;;;;;;;;;;;;5045550;28;19924;-68
2022/01/31 13:32:20;;;;;;;;;;;;;;;;;;5039430;28;19917;-69
2022/01/31 13:34:45;;;;;;;;;;;;;;;;;;5039296;28;19912;-69
2022/01/31 13:37:10;;;;;;;;;;;;;;;;;;5038617;28;19924;-69
2022/01/31 13:39:35;;;;;;;;;;;;;;;;;;5038344;28;19916;-68
2022/01/31 13:42:01;;;;;;;;;;;;;;;;;;5035871;28;19959;-68
2022/01/31 13:44:26;;;;;;;;;;;;;;;;;;5042970;28;20190;-68
2022/01/31 13:46:52;;;;;;;;;;;;;;;;;;5039308;28;19928;-69
2022/01/31 13:49:23;;;;;;;;;;;;;;;;;;5039128;28;19944;-69
2022/01/31 13:51:50;;;;;;;;;;;;;;;;;;5039223;28;19913;-68
2022/01/31 13:54:15;;;;;;;;;;;;;;;;;;5055701;28;20111;-69
2022/01/31 13:56:40;;;;;;;;;;;;;;;;;;5040321;28;20091;-68
2022/01/31 13:59:05;;;;;;;;;;;;;;;;;;5039730;28;19917;-68
2022/01/31 14:01:32;;;;;;;;;;;;;;;;;;5037647;28;20442;-68
2022/01/31 14:03:57;;;;;;;;;;;;;;;;;;5038621;28;19956;-69
2022/01/31 14:06:22;;;;;;;;;;;;;;;;;;5046762;28;19967;-69
2022/01/31 14:08:47;;;;;;;;;;;;;;;;;;5038944;28;19908;-68
2022/01/31 14:11:12;;;;;;;;;;;;;;;;;;5038751;28;20451;-68
2022/01/31 14:13:37;;;;;;;;;;;;;;;;;;5053136;28;20061;-69
2022/01/31 14:16:03;;;;;;;;;;;;;;;;;;5040700;28;20448;-68
2022/01/31 14:18:28;;;;;;;;;;;;;;;;;;5054269;28;20413;-68
2022/01/31 14:20:53;;;;;;;;;;;;;;;;;;5037742;28;20432;-69
2022/01/31 14:23:18;;;;;;;;;;;;;;;;;;5037574;28;20369;-68
2022/01/31 14:25:43;;;;;;;;;;;;;;;;;;5038514;28;19917;-68
2022/01/31 14:28:10;;;;;;;;;;;;;;;;;;5043879;28;19982;-69
2022/01/31 14:30:35;;;;;;;;;;;;;;;;;;5046724;28;19917;-69
2022/01/31 14:33:00;;;;;;;;;;;;;;;;;;5045499;28;19988;-68
2022/01/31 14:35:26;;;;;;;;;;;;;;;;;;5045824;28;20407;-68
2022/01/31 14:37:52;;;;;;;;;;;;;;;;;;5046268;28;20587;-69
2022/01/31 14:40:36;;;;;;;;;;;;;;;;;;5049641;28;20356;-68
2022/01/31 14:43:11;;;;;;;;;;;;;;;;;;5030908;28;19940;-68
2022/01/31 14:48:20;;;;;;;;;;;;;;;;;;5048592;28;20449;-68
2022/01/31 14:50:45;;;;;;;;;;;;;;;;;;5042197;28;20388;-68
2022/01/31 14:53:10;;;;;;;;;;;;;;;;;;5042533;28;20293;-68
2022/01/31 14:55:36;;;;;;;;;;;;;;;;;;5045893;28;20507;-68
2022/01/31 14:58:01;;;;;;;;;;;;;;;;;;5042807;28;19912;-68
2022/01/31 15:00:26;;;;;;;;;;;;;;;;;;5046456;28;19986;-68
2022/01/31 15:02:53;;;;;;;;;;;;;;;;;;5041780;28;19917;-68
2022/01/31 15:05:21;;;;;;;;;;;;;;;;;;5042207;28;20221;-68
2022/01/31 15:07:46;;;;;;;;;;;;;;;;;;5042569;28;20381;-68
2022/01/31 15:10:11;;;;;;;;;;;;;;;;;;5041779;28;19921;-68
2022/01/31 15:12:36;;;;;;;;;;;;;;;;;;5053640;28;19908;-68
2022/01/31 15:15:01;;;;;;;;;;;;;;;;;;5057769;28;20153;-68
2022/01/31 15:17:29;;;;;;;;;;;;;;;;;;5062433;28;19909;-68
2022/01/31 15:19:55;;;;;;;;;;;;;;;;;;5053739;28;19913;-68
2022/01/31 15:22:20;;;;;;;;;;;;;;;;;;5053313;28;19916;-68
2022/01/31 15:24:45;;;;;;;;;;;;;;;;;;5055201;28;20097;-68
2022/01/31 15:27:10;;;;;;;;;;;;;;;;;;5042283;28;20360;-68
2022/01/31 15:29:36;;;;;;;;;;;;;;;;;;5041862;28;19978;-68
2022/01/31 15:32:01;;;;;;;;;;;;;;;;;;5043174;28;19913;-68
2022/01/31 15:34:26;;;;;;;;;;;;;;;;;;5043412;28;19920;-68
2022/01/31 15:36:51;;;;;;;;;;;;;;;;;;5042145;28;19913;-68
2022/01/31 15:39:16;;;;;;;;;;;;;;;;;;5054772;28;19917;-68
2022/01/31 15:41:42;;;;;;;;;;;;;;;;;;5042098;28;19912;-68
2022/01/31 15:44:23;;;;;;;;;;;;;;;;;;5042326;28;19944;-68
2022/01/31 15:46:48;;;;;;;;;;;;;;;;;;5029863;28;19940;-68
2022/01/31 15:49:13;;;;;;;;;;;;;;;;;;5053081;28;20450;-68
2022/01/31 15:51:38;;;;;;;;;;;;;;;;;;5041732;28;19943;-68
2022/01/31 15:54:04;;;;;;;;;;;;;;;;;;5043675;28;20369;-68
2022/01/31 15:56:29;;;;;;;;;;;;;;;;;;5041723;28;20282;-68
2022/01/31 15:58:54;;;;;;;;;;;;;;;;;;5044074;28;20305;-68
2022/01/31 16:01:19;;;;;;;;;;;;;;;;;;5041687;28;20309;-68
2022/01/31 16:03:44;;;;;;;;;;;;;;;;;;5042326;28;20278;-68
2022/01/31 16:06:09;;;;;;;;;;;;;;;;;;5041491;28;19916;-68
2022/01/31 16:08:34;;;;;;;;;;;;;;;;;;5039907;28;19928;-68
2022/01/31 16:11:00;;;;;;;;;;;;;;;;;;5022417;28;19952;-68
2022/01/31 16:13:25;;;;;;;;;;;;;;;;;;5039972;28;19924;-69
2022/01/31 16:15:50;;;;;;;;;;;;;;;;;;5036815;28;19956;-68
2022/01/31 16:18:15;;;;;;;;;;;;;;;;;;5040959;28;20416;-71
2022/01/31 16:20:40;;;;;;;;;;;;;;;;;;5038817;28;20076;-69
2022/01/31 16:23:05;;;;;;;;;;;;;;;;;;5042675;28;19921;-69
2022/01/31 16:25:31;;;;;;;;;;;;;;;;;;5040609;28;19921;-69
2022/01/31 16:28:00;;;;;;;;;;;;;;;;;;5042738;28;20063;-69
2022/01/31 16:30:25;;;;;;;;;;;;;;;;;;5037294;28;19921;-69
2022/01/31 16:32:50;;;;;;;;;;;;;;;;;;5038620;28;20316;-69
2022/01/31 16:35:16;;;;;;;;;;;;;;;;;;5034514;28;19923;-69
2022/01/31 16:37:42;;;;;;;;;;;;;;;;;;5036955;28;20078;-69
2022/01/31 16:40:08;;;;;;;;;;;;;;;;;;5038871;28;20293;-69
2022/01/31 16:42:33;;;;;;;;;;;;;;;;;;5041711;28;20041;-69
2022/01/31 16:44:58;;;;;;;;;;;;;;;;;;5040201;28;20009;-69
2022/01/31 16:47:23;;;;;;;;;;;;;;;;;;5037789;28;19983;-69
2022/01/31 16:49:49;;;;;;;;;;;;;;;;;;5038139;28;19924;-69
2022/01/31 16:52:14;;;;;;;;;;;;;;;;;;5035219;28;20718;-69
2022/01/31 16:54:40;;;;;;;;;;;;;;;;;;5036476;28;20197;-69
2022/01/31 16:57:05;;;;;;;;;;;;;;;;;;5036042;28;19921;-69
2022/01/31 16:59:30;;;;;;;;;;;;;;;;;;5032710;28;19920;-69
2022/01/31 17:01:55;;;;;;;;;;;;;;;;;;5036951;28;20012;-69
2022/01/31 17:04:21;;;;;;;;;;;;;;;;;;5036466;28;19917;-69
2022/01/31 17:06:46;;;;;;;;;;;;;;;;;;5034834;28;19924;-69
2022/01/31 17:09:11;;;;;;;;;;;;;;;;;;5032659;28;19916;-69